createdAt,value
2023-07-24T00:01:46.601Z,100131.31
2023-07-24T00:04:49.494Z,100134.69
2023-07-24T00:07:51.824Z,100126.00
2023-07-24T00:10:54.710Z,100129.09
2023-07-24T00:13:57.052Z,100124.38
2023-07-24T00:16:59.671Z,100115.16
2023-07-24T00:20:02.045Z,100119.34
2023-07-24T00:23:04.753Z,100122.25
2023-07-24T00:26:07.132Z,100113.34
2023-07-24T00:29:09.741Z,100118.22
2023-07-24T00:32:12.672Z,100115.03
2023-07-24T00:35:15.356Z,100113.47
2023-07-24T00:38:17.773Z,100105.53
2023-07-24T00:41:20.367Z,100098.13
2023-07-24T00:44:23.201Z,100091.44
2023-07-24T00:47:26.783Z,100081.78
2023-07-24T00:50:30.035Z,100073.69
2023-07-24T00:53:32.863Z,100081.34
2023-07-24T00:56:35.681Z,100072.44
2023-07-24T00:59:38.488Z,100073.53
2023-07-24T01:02:40.979Z,100071.03
2023-07-24T01:05:46.823Z,100077.31
2023-07-24T01:08:49.244Z,100067.06
2023-07-24T01:11:55.958Z,100066.22
2023-07-24T01:15:15.384Z,100061.91
2023-07-24T01:18:18.613Z,100064.69
2023-07-24T01:21:26.740Z,100069.12
2023-07-24T01:24:44.797Z,100075.69
2023-07-24T01:27:47.422Z,100073.06
2023-07-24T01:30:50.122Z,100070.66
2023-07-24T01:33:52.589Z,100074.00
2023-07-24T01:36:55.236Z,100073.16
2023-07-24T01:39:57.898Z,100075.97
2023-07-24T01:43:00.806Z,100066.84
2023-07-24T01:46:03.318Z,100063.63
2023-07-24T01:49:06.094Z,100059.59
2023-07-24T01:52:08.446Z,100055.84
2023-07-24T01:55:11.047Z,100056.19
2023-07-24T01:58:13.334Z,100065.25
2023-07-24T02:01:16.040Z,100063.25
2023-07-24T02:04:18.807Z,100060.75
2023-07-24T02:07:23.063Z,100061.41
2023-07-24T02:10:25.643Z,100060.34
2023-07-24T02:13:27.963Z,100055.44
2023-07-24T02:16:30.795Z,100063.41
2023-07-24T02:19:33.411Z,100058.69
2023-07-24T02:22:36.648Z,100058.94
2023-07-24T02:25:41.735Z,100071.47
2023-07-24T02:28:44.382Z,100062.00
2023-07-24T02:31:46.795Z,100070.31
2023-07-24T02:34:52.593Z,100070.03
2023-07-24T02:37:54.841Z,100063.56
2023-07-24T02:40:58.051Z,100075.75
2023-07-24T02:44:00.463Z,100062.34
2023-07-24T02:47:03.201Z,100064.53
2023-07-24T02:50:05.680Z,100072.62
2023-07-24T02:53:08.527Z,100070.06
2023-07-24T02:56:10.874Z,100067.34
2023-07-24T02:59:13.557Z,100067.34
2023-07-24T03:02:15.908Z,100077.22
2023-07-24T03:05:18.678Z,100078.41
2023-07-24T03:08:21.004Z,100072.47
2023-07-24T03:11:23.642Z,100067.87
2023-07-24T03:14:27.152Z,100061.88
2023-07-24T03:17:29.875Z,100068.41
2023-07-24T03:20:32.285Z,100065.56
2023-07-24T03:23:34.872Z,100060.78
2023-07-24T03:26:37.493Z,100066.47
2023-07-24T03:29:42.052Z,100059.34
2023-07-24T03:32:44.481Z,100061.53
2023-07-24T03:35:47.096Z,100058.41
2023-07-24T03:38:49.508Z,100055.53
2023-07-24T03:41:52.104Z,100057.63
2023-07-24T03:44:54.830Z,100064.00
2023-07-24T03:47:57.509Z,100060.75
2023-07-24T03:51:03.322Z,100066.19
2023-07-24T03:54:05.988Z,100059.91
2023-07-24T03:57:08.393Z,100057.25
2023-07-24T04:00:11.362Z,100061.59
2023-07-24T04:03:15.058Z,100050.87
2023-07-24T04:06:17.737Z,100056.16
2023-07-24T04:09:20.031Z,100057.56
2023-07-24T04:12:24.794Z,100061.16
2023-07-24T04:15:27.055Z,100061.66
2023-07-24T04:18:29.646Z,100052.50
2023-07-24T04:21:32.053Z,100060.31
2023-07-24T04:24:34.769Z,100057.16
2023-07-24T04:27:37.100Z,100050.63
2023-07-24T04:30:39.686Z,100051.47
2023-07-24T04:33:42.030Z,100050.13
2023-07-24T04:36:44.624Z,100051.44
2023-07-24T04:39:47.080Z,100052.59
2023-07-24T04:42:49.768Z,100050.25
2023-07-24T04:45:52.076Z,100049.34
2023-07-24T04:48:54.763Z,100044.37
2023-07-24T04:51:57.243Z,100054.28
2023-07-24T04:54:59.855Z,100053.50
2023-07-24T04:58:02.153Z,100058.47
2023-07-24T05:01:05.367Z,100060.75
2023-07-24T05:04:07.756Z,100066.41
2023-07-24T05:07:10.307Z,100070.87
2023-07-24T05:10:14.474Z,100074.81
2023-07-24T05:13:17.274Z,100067.84
2023-07-24T05:16:19.650Z,100067.63
2023-07-24T05:19:22.306Z,100061.56
2023-07-24T05:22:24.622Z,100059.88
2023-07-24T05:25:27.238Z,100070.25
2023-07-24T05:28:30.210Z,100067.97
2023-07-24T05:31:34.774Z,100073.97
2023-07-24T05:34:37.204Z,100071.91
2023-07-24T05:37:39.815Z,100059.03
2023-07-24T05:40:42.255Z,100070.66
2023-07-24T05:43:44.858Z,100070.91
2023-07-24T05:46:47.153Z,100068.91
2023-07-24T05:49:49.821Z,100064.84
2023-07-24T05:52:52.573Z,100064.78
2023-07-24T05:56:01.443Z,100060.25
2023-07-24T05:59:03.812Z,100055.97
2023-07-24T06:02:06.501Z,100050.34
2023-07-24T06:05:09.274Z,100052.94
2023-07-24T06:08:12.757Z,100059.88
2023-07-24T06:11:15.448Z,100053.87
2023-07-24T06:14:17.898Z,100036.91
2023-07-24T06:17:20.563Z,100049.84
2023-07-24T06:20:22.872Z,100047.25
2023-07-24T06:23:25.493Z,100045.88
2023-07-24T06:26:28.198Z,100044.09
2023-07-24T06:29:31.098Z,100046.94
2023-07-24T06:32:33.608Z,100046.12
2023-07-24T06:35:36.757Z,100046.38
2023-07-24T06:38:39.116Z,100048.38
2023-07-24T06:41:41.890Z,100043.63
2023-07-24T06:44:44.267Z,100045.44
2023-07-24T06:47:46.856Z,100043.09
2023-07-24T06:50:49.216Z,100052.72
2023-07-24T06:53:51.926Z,100051.50
2023-07-24T06:56:54.434Z,100045.16
2023-07-24T06:59:57.004Z,100051.25
2023-07-24T07:03:02.089Z,100058.69
2023-07-24T07:06:04.847Z,100056.09
2023-07-24T07:09:07.606Z,100062.88
2023-07-24T07:12:10.246Z,100058.44
2023-07-24T07:15:12.554Z,100057.03
2023-07-24T07:18:16.287Z,100059.59
2023-07-24T07:21:19.311Z,100042.62
2023-07-24T07:24:22.010Z,100048.28
2023-07-24T07:27:24.362Z,100045.59
2023-07-24T07:30:27.001Z,100031.59
2023-07-24T07:33:30.558Z,100036.81
2023-07-24T07:36:33.301Z,100015.22
2023-07-24T07:39:35.765Z,100028.84
2023-07-24T07:42:39.771Z,100023.19
2023-07-24T07:45:42.621Z,100021.06
2023-07-24T07:48:47.311Z,100013.94
2023-07-24T07:51:49.628Z,100021.06
2023-07-24T07:54:52.316Z,100010.47
2023-07-24T07:57:54.725Z,100011.56
2023-07-24T08:00:57.371Z,100009.91
2023-07-24T08:04:00.381Z,100019.41
2023-07-24T08:07:02.842Z,100006.66
2023-07-24T08:10:05.657Z,99999.25
2023-07-24T08:13:08.853Z,100001.69
2023-07-24T08:16:19.605Z,100006.03
2023-07-24T08:19:22.471Z,99999.38
2023-07-24T08:22:25.142Z,99993.75
2023-07-24T08:25:27.431Z,99997.12
2023-07-24T08:28:30.165Z,99978.84
2023-07-24T08:31:32.620Z,99985.59
2023-07-24T08:34:35.427Z,99992.09
2023-07-24T08:37:37.790Z,99989.22
2023-07-24T08:40:40.505Z,99985.69
2023-07-24T08:43:43.849Z,99977.19
2023-07-24T08:46:47.181Z,99984.03
2023-07-24T08:49:50.114Z,99985.81
2023-07-24T08:52:52.794Z,99974.75
2023-07-24T08:55:55.884Z,99966.75
2023-07-24T08:58:58.629Z,99956.37
2023-07-24T09:02:01.089Z,99961.22
2023-07-24T09:05:04.903Z,99969.28
2023-07-24T09:08:07.556Z,99958.28
2023-07-24T09:11:10.905Z,99959.59
2023-07-24T09:14:21.075Z,99940.84
2023-07-24T09:17:23.737Z,99935.22
2023-07-24T09:23:33.649Z,99942.69
2023-07-24T09:26:36.008Z,99941.31
2023-07-24T09:29:41.267Z,99934.66
2023-07-24T09:32:43.769Z,99934.25
2023-07-24T09:35:46.398Z,99933.25
2023-07-24T09:38:48.656Z,99911.06
2023-07-24T09:41:51.465Z,99914.38
2023-07-24T09:44:53.858Z,99905.81
2023-07-24T09:48:05.098Z,99906.25
2023-07-24T09:51:12.984Z,99888.28
2023-07-24T09:54:27.543Z,99881.84
2023-07-24T09:57:30.615Z,99868.28
2023-07-24T10:00:33.731Z,99878.03
2023-07-24T10:03:37.208Z,99884.41
2023-07-24T10:06:39.673Z,99872.44
2023-07-24T10:09:43.944Z,99865.81
2023-07-24T10:12:46.344Z,99860.69
2023-07-24T10:15:49.745Z,99864.72
2023-07-24T10:18:52.083Z,99853.28
2023-07-24T10:21:54.776Z,99843.63
2023-07-24T10:24:57.214Z,99851.03
2023-07-24T10:28:08.765Z,99849.63
2023-07-24T10:31:24.371Z,99845.66
2023-07-24T10:34:36.819Z,99840.66
2023-07-24T10:37:39.130Z,99828.56
2023-07-24T10:40:42.312Z,99824.16
2023-07-24T10:43:48.269Z,99828.50
2023-07-24T10:46:52.394Z,99815.84
2023-07-24T10:49:54.821Z,99814.12
2023-07-24T10:52:58.672Z,99813.06
2023-07-24T10:56:01.341Z,99808.03
2023-07-24T10:59:05.273Z,99817.66
2023-07-24T11:02:08.453Z,99802.37
2023-07-24T11:05:13.239Z,99797.78
2023-07-24T11:08:19.604Z,99790.38
2023-07-24T11:11:22.294Z,99782.91
2023-07-24T11:14:25.508Z,99770.53
2023-07-24T11:17:36.114Z,99768.78
2023-07-24T11:20:49.144Z,99763.38
2023-07-24T11:23:53.238Z,99755.38
2023-07-24T11:26:55.657Z,99756.13
2023-07-24T11:29:58.242Z,99749.44
2023-07-24T11:33:02.250Z,99740.00
2023-07-24T11:36:05.268Z,99730.06
2023-07-24T11:39:07.817Z,99726.16
2023-07-24T11:42:10.613Z,99729.31
2023-07-24T11:45:13.032Z,99718.44
2023-07-24T11:48:15.938Z,99711.44
2023-07-24T11:51:18.317Z,99708.47
2023-07-24T11:54:20.964Z,99702.34
2023-07-24T11:57:23.296Z,99678.41
2023-07-24T12:00:26.134Z,99679.22
2023-07-24T12:03:29.829Z,99680.66
2023-07-24T12:06:33.321Z,99673.59
2023-07-24T12:12:47.266Z,99658.44
2023-07-24T12:15:50.434Z,99656.84
2023-07-24T12:18:52.843Z,99650.37
2023-07-24T12:21:55.648Z,99655.34
2023-07-24T12:24:58.086Z,99631.84
2023-07-24T12:28:00.784Z,99638.44
2023-07-24T12:31:03.700Z,99634.78
2023-07-24T12:34:06.585Z,99634.56
2023-07-24T12:37:08.958Z,99625.34
2023-07-24T12:40:11.707Z,99631.50
2023-07-24T12:43:15.905Z,99613.31
2023-07-24T12:46:18.654Z,99608.56
2023-07-24T12:49:21.273Z,99598.84
2023-07-24T12:52:23.946Z,99598.06
2023-07-24T12:55:28.105Z,99594.50
2023-07-24T12:58:30.902Z,99582.50
2023-07-24T13:01:33.661Z,99594.53
2023-07-24T13:04:36.634Z,99578.25
2023-07-24T13:07:39.247Z,99571.38
2023-07-24T13:10:41.859Z,99563.75
2023-07-24T13:13:44.688Z,99567.37
2023-07-24T13:16:47.553Z,99562.75
2023-07-24T13:19:49.947Z,99559.09
2023-07-24T13:22:52.554Z,99544.31
2023-07-24T13:25:55.043Z,99557.19
2023-07-24T13:28:57.626Z,99545.22
2023-07-24T13:32:00.005Z,99543.34
2023-07-24T13:35:02.966Z,99535.09
2023-07-24T13:38:05.348Z,99522.47
2023-07-24T13:41:09.376Z,99518.34
2023-07-24T13:44:11.792Z,99506.28
2023-07-24T13:47:14.596Z,99512.59
2023-07-24T13:50:16.890Z,99506.59
2023-07-24T13:53:19.398Z,99501.50
2023-07-24T13:56:24.249Z,99504.22
2023-07-24T13:59:26.885Z,99496.06
2023-07-24T14:02:29.366Z,99498.00
2023-07-24T14:05:32.309Z,99487.44
2023-07-24T14:08:34.737Z,99483.44
2023-07-24T14:11:37.351Z,99471.56
2023-07-24T14:14:39.721Z,99466.44
2023-07-24T14:17:42.385Z,99454.75
2023-07-24T14:20:44.839Z,99446.72
2023-07-24T14:23:47.492Z,99446.66
2023-07-24T14:26:49.926Z,99436.28
2023-07-24T14:29:52.632Z,99429.34
2023-07-24T14:32:55.004Z,99425.22
2023-07-24T14:35:57.636Z,99408.56
2023-07-24T14:39:00.510Z,99415.50
2023-07-24T14:42:03.162Z,99412.75
2023-07-24T14:45:05.813Z,99405.09
2023-07-24T14:48:13.829Z,99404.69
2023-07-24T14:51:16.391Z,99399.84
2023-07-24T14:54:19.136Z,99388.16
2023-07-24T14:57:25.657Z,99369.94
2023-07-24T15:00:30.448Z,99364.81
2023-07-24T15:03:32.805Z,99369.41
2023-07-24T15:06:53.963Z,99365.75
2023-07-24T15:09:56.265Z,99363.13
2023-07-24T15:12:58.899Z,99378.94
2023-07-24T15:16:01.374Z,99377.25
2023-07-24T15:19:04.038Z,99372.03
2023-07-24T15:22:06.650Z,99368.00
2023-07-24T15:25:10.703Z,99361.63
2023-07-24T15:28:13.562Z,99344.44
2023-07-24T15:31:16.448Z,99352.00
2023-07-24T15:34:18.925Z,99340.31
2023-07-24T15:37:21.846Z,99341.84
2023-07-24T15:40:24.218Z,99340.25
2023-07-24T15:43:26.983Z,99329.06
2023-07-24T15:46:32.572Z,99321.72
2023-07-24T15:49:35.451Z,99333.56
2023-07-24T15:52:37.750Z,99341.88
2023-07-24T15:55:40.350Z,99346.31
2023-07-24T15:58:44.035Z,99360.97
2023-07-24T16:01:46.743Z,99359.59
2023-07-24T16:04:51.335Z,99351.28
2023-07-24T16:07:53.781Z,99341.25
2023-07-24T16:10:56.641Z,99333.41
2023-07-24T16:13:58.929Z,99331.75
2023-07-24T16:17:01.777Z,99332.16
2023-07-24T16:20:05.065Z,99325.38
2023-07-24T16:23:08.103Z,99320.41
2023-07-24T16:26:10.454Z,99311.25
2023-07-24T16:29:13.001Z,99320.81
2023-07-24T16:32:15.380Z,99307.63
2023-07-24T16:35:18.025Z,99301.41
2023-07-24T16:38:20.423Z,99301.91
2023-07-24T16:41:23.261Z,99301.91
2023-07-24T16:44:33.220Z,99296.06
2023-07-24T16:47:39.774Z,99292.87
2023-07-24T16:50:42.255Z,99291.19
2023-07-24T16:53:44.891Z,99285.53
2023-07-24T16:56:47.212Z,99302.28
2023-07-24T16:59:49.812Z,99294.88
2023-07-24T17:02:52.371Z,99297.13
2023-07-24T17:05:55.217Z,99305.88
2023-07-24T17:08:57.550Z,99310.22
2023-07-24T17:12:01.024Z,99303.41
2023-07-24T17:15:04.857Z,99293.50
2023-07-24T17:18:07.592Z,99302.78
2023-07-24T17:21:09.908Z,99286.91
2023-07-24T17:24:12.567Z,99295.16
2023-07-24T17:27:15.077Z,99290.19
2023-07-24T17:30:18.083Z,99279.06
2023-07-24T17:33:20.437Z,99281.75
2023-07-24T17:36:23.078Z,99286.09
2023-07-24T17:39:25.378Z,99284.84
2023-07-24T17:42:27.958Z,99294.91
2023-07-24T17:45:30.278Z,99289.78
2023-07-24T17:48:32.890Z,99279.84
2023-07-24T17:51:35.450Z,99272.62
2023-07-24T17:54:40.508Z,99265.16
2023-07-24T17:57:42.819Z,99267.00
2023-07-24T18:00:46.981Z,99262.84
2023-07-24T18:03:49.751Z,99259.56
2023-07-24T18:06:52.293Z,99266.72
2023-07-24T18:09:54.989Z,99261.97
2023-07-24T18:12:57.763Z,99254.75
2023-07-24T18:16:00.310Z,99248.78
2023-07-24T18:19:04.881Z,99246.87
2023-07-24T18:22:07.538Z,99241.28
2023-07-24T18:25:10.686Z,99243.75
2023-07-24T18:28:13.456Z,99248.69
2023-07-24T18:31:15.840Z,99239.97
2023-07-24T18:34:20.456Z,99230.28
2023-07-24T18:37:22.841Z,99224.44
2023-07-24T18:40:25.662Z,99224.59
2023-07-24T18:43:28.354Z,99232.59
2023-07-24T18:46:30.899Z,99244.41
2023-07-24T18:49:33.518Z,99259.41
2023-07-24T18:52:36.259Z,99258.19
2023-07-24T18:55:39.562Z,99251.63
2023-07-24T18:58:44.712Z,99255.50
2023-07-24T19:01:48.160Z,99257.91
2023-07-24T19:04:50.776Z,99258.31
2023-07-24T19:07:53.077Z,99255.38
2023-07-24T19:10:55.678Z,99270.37
2023-07-24T19:13:58.066Z,99257.13
2023-07-24T19:17:00.728Z,99261.16
2023-07-24T19:20:03.074Z,99252.66
2023-07-24T19:23:05.709Z,99248.31
2023-07-24T19:26:09.722Z,99266.63
2023-07-24T19:29:12.328Z,99264.91
2023-07-24T19:32:14.639Z,99266.75
2023-07-24T19:35:19.223Z,99257.59
2023-07-24T19:38:21.547Z,99264.38
2023-07-24T19:41:24.697Z,99265.97
2023-07-24T19:44:27.100Z,99260.06
2023-07-24T19:47:29.897Z,99264.31
2023-07-24T19:50:32.261Z,99262.41
2023-07-24T19:53:34.977Z,99256.22
2023-07-24T19:56:37.301Z,99246.91
2023-07-24T19:59:39.943Z,99247.13
2023-07-24T20:02:43.230Z,99246.53
2023-07-24T20:05:54.960Z,99248.66
2023-07-24T20:08:57.262Z,99272.03
2023-07-24T20:11:59.995Z,99256.25
2023-07-24T20:15:02.681Z,99233.84
2023-07-24T20:18:06.361Z,99226.53
2023-07-24T20:21:09.033Z,99205.97
2023-07-24T20:24:13.087Z,99211.19
2023-07-24T20:27:15.701Z,99207.53
2023-07-24T20:30:18.274Z,99209.37
2023-07-24T20:33:20.922Z,99213.25
2023-07-24T20:36:23.619Z,99213.91
2023-07-24T20:39:26.940Z,99215.50
2023-07-24T20:42:30.775Z,99203.50
2023-07-24T20:45:33.130Z,99207.03
2023-07-24T20:48:35.758Z,99216.37
2023-07-24T20:51:38.098Z,99204.97
2023-07-24T20:54:40.738Z,99207.53
2023-07-24T20:57:43.019Z,99195.47
2023-07-24T21:00:45.666Z,99201.09
2023-07-24T21:03:48.006Z,99192.34
2023-07-24T21:06:51.613Z,99193.75
2023-07-24T21:09:54.031Z,99187.50
2023-07-24T21:12:56.970Z,99189.88
2023-07-24T21:15:59.593Z,99182.59
2023-07-24T21:19:03.144Z,99184.19
2023-07-24T21:22:05.644Z,99186.37
2023-07-24T21:25:08.587Z,99184.56
2023-07-24T21:28:12.359Z,99212.31
2023-07-24T21:31:15.607Z,99238.84
2023-07-24T21:34:18.791Z,99255.84
2023-07-24T21:37:21.435Z,99264.75
2023-07-24T21:40:23.760Z,99253.59
2023-07-24T21:43:26.375Z,99257.03
2023-07-24T21:46:28.836Z,99268.66
2023-07-24T21:49:32.657Z,99261.09
2023-07-24T21:52:36.581Z,99274.81
2023-07-24T21:55:40.265Z,99265.06
2023-07-24T21:58:42.664Z,99290.59
2023-07-24T22:01:45.267Z,99295.72
2023-07-24T22:04:47.928Z,99295.72
2023-07-24T22:07:50.478Z,99305.91
2023-07-24T22:10:53.217Z,99306.25
2023-07-24T22:13:55.500Z,99306.91
2023-07-24T22:16:58.296Z,99302.22
2023-07-24T22:20:01.727Z,99293.97
2023-07-24T22:23:04.372Z,99289.25
2023-07-24T22:26:06.684Z,99293.97
2023-07-24T22:29:09.426Z,99284.03
2023-07-24T22:32:11.771Z,99294.34
2023-07-24T22:35:14.689Z,99306.44
2023-07-24T22:38:16.944Z,99302.41
2023-07-24T22:41:19.654Z,99301.41
2023-07-24T22:44:22.054Z,99300.44
2023-07-24T22:47:25.005Z,99293.94
2023-07-24T22:50:27.485Z,99277.63
2023-07-24T22:53:30.094Z,99247.72
2023-07-24T22:56:32.433Z,99227.56
2023-07-24T22:59:35.331Z,99201.63
2023-07-24T23:02:37.788Z,99219.31
2023-07-24T23:05:40.480Z,99240.78
2023-07-24T23:08:42.853Z,99267.53
2023-07-24T23:11:45.501Z,99291.94
2023-07-24T23:14:47.802Z,99301.56
2023-07-24T23:17:50.568Z,99306.56
2023-07-24T23:20:52.957Z,99310.13
2023-07-24T23:23:55.660Z,99306.28
2023-07-24T23:26:57.896Z,99311.50
2023-07-24T23:30:00.649Z,99318.69
2023-07-24T23:33:03.025Z,99346.00
2023-07-24T23:36:08.523Z,99357.31
2023-07-24T23:39:10.890Z,99365.81
2023-07-24T23:42:13.515Z,99372.94
2023-07-24T23:45:16.008Z,99383.56
2023-07-24T23:48:18.720Z,99409.56
2023-07-24T23:51:21.468Z,99407.69
2023-07-24T23:54:24.048Z,99427.66
2023-07-24T23:57:32.182Z,99424.19
